sensor_id;sensor_type;location;lat;lon;timestamp;pressure;altitude;pressure_sealevel;temperature;humidity
10079;BME280;5078;42.544;22.966;2023-01-27T00:01:20;93021.38;;;-0.89;100.00
10079;BME280;5078;42.544;22.966;2023-01-27T00:03:46;93024.47;;;-0.74;100.00
10079;BME280;5078;42.544;22.966;2023-01-27T00:06:13;93009.41;;;-1.01;100.00
10079;BME280;5078;42.544;22.966;2023-01-27T00:08:40;93027.25;;;-1.17;100.00
10079;BME280;5078;42.544;22.966;2023-01-27T00:11:06;93030.84;;;-1.09;100.00
10079;BME280;5078;42.544;22.966;2023-01-27T00:13:52;93023.47;;;-1.03;100.00
10079;BME280;5078;42.544;22.966;2023-01-27T00:16:19;93024.19;;;-1.01;100.00
10079;BME280;5078;42.544;22.966;2023-01-27T00:18:46;92998.72;;;-0.77;100.00
10079;BME280;5078;42.544;22.966;2023-01-27T00:21:12;92998.94;;;-0.90;100.00
10079;BME280;5078;42.544;22.966;2023-01-27T00:23:56;92996.00;;;-0.96;100.00
10079;BME280;5078;42.544;22.966;2023-01-27T00:26:40;92983.47;;;-1.12;100.00
10079;BME280;5078;42.544;22.966;2023-01-27T00:29:08;92980.78;;;-1.01;100.00
10079;BME280;5078;42.544;22.966;2023-01-27T00:31:35;92992.50;;;-0.85;100.00
10079;BME280;5078;42.544;22.966;2023-01-27T00:34:19;92992.47;;;-0.64;100.00
10079;BME280;5078;42.544;22.966;2023-01-27T00:36:46;92991.69;;;-0.55;100.00
10079;BME280;5078;42.544;22.966;2023-01-27T00:39:13;92988.41;;;-0.57;100.00
10079;BME280;5078;42.544;22.966;2023-01-27T00:41:40;92993.09;;;-0.82;100.00
10079;BME280;5078;42.544;22.966;2023-01-27T00:44:08;92986.16;;;-0.72;100.00
10079;BME280;5078;42.544;22.966;2023-01-27T00:46:37;92989.34;;;-0.58;100.00
10079;BME280;5078;42.544;22.966;2023-01-27T00:49:04;92976.72;;;-0.63;100.00
10079;BME280;5078;42.544;22.966;2023-01-27T00:51:31;92975.47;;;-0.69;100.00
10079;BME280;5078;42.544;22.966;2023-01-27T00:53:57;92975.66;;;-0.51;100.00
10079;BME280;5078;42.544;22.966;2023-01-27T00:56:27;92985.38;;;-0.53;100.00
10079;BME280;5078;42.544;22.966;2023-01-27T00:58:54;92985.81;;;-0.48;100.00
10079;BME280;5078;42.544;22.966;2023-01-27T01:01:22;92987.41;;;-0.66;100.00
10079;BME280;5078;42.544;22.966;2023-01-27T01:03:49;92989.88;;;-0.64;100.00
10079;BME280;5078;42.544;22.966;2023-01-27T01:06:17;92993.34;;;-0.54;100.00
10079;BME280;5078;42.544;22.966;2023-01-27T01:08:44;92994.97;;;-0.53;100.00
10079;BME280;5078;42.544;22.966;2023-01-27T01:11:13;92998.50;;;-0.64;100.00
10079;BME280;5078;42.544;22.966;2023-01-27T01:13:40;93001.16;;;-0.54;100.00
10079;BME280;5078;42.544;22.966;2023-01-27T01:16:09;93020.41;;;-0.67;100.00
10079;BME280;5078;42.544;22.966;2023-01-27T01:18:38;93026.38;;;-0.45;100.00
10079;BME280;5078;42.544;22.966;2023-01-27T01:21:05;93020.66;;;-0.39;100.00
10079;BME280;5078;42.544;22.966;2023-01-27T01:23:32;93019.00;;;-0.09;100.00
10079;BME280;5078;42.544;22.966;2023-01-27T01:25:59;93019.56;;;0.04;100.00
10079;BME280;5078;42.544;22.966;2023-01-27T01:28:26;93018.88;;;0.02;100.00
10079;BME280;5078;42.544;22.966;2023-01-27T01:30:53;93019.28;;;0.07;100.00
10079;BME280;5078;42.544;22.966;2023-01-27T01:33:19;93020.41;;;0.14;100.00
10079;BME280;5078;42.544;22.966;2023-01-27T01:35:48;93010.94;;;0.04;100.00
10079;BME280;5078;42.544;22.966;2023-01-27T01:38:14;93006.66;;;-0.07;100.00
10079;BME280;5078;42.544;22.966;2023-01-27T01:40:42;93004.84;;;-0.16;100.00
10079;BME280;5078;42.544;22.966;2023-01-27T01:43:14;93003.38;;;-0.09;100.00
10079;BME280;5078;42.544;22.966;2023-01-27T01:45:59;92996.66;;;-0.02;100.00
10079;BME280;5078;42.544;22.966;2023-01-27T01:48:31;92991.19;;;0.01;100.00
10079;BME280;5078;42.544;22.966;2023-01-27T01:51:03;92984.97;;;-0.17;100.00
10079;BME280;5078;42.544;22.966;2023-01-27T01:53:36;92982.63;;;-0.20;100.00
10079;BME280;5078;42.544;22.966;2023-01-27T01:56:07;92980.56;;;-0.27;100.00
10079;BME280;5078;42.544;22.966;2023-01-27T01:58:35;92985.88;;;-0.28;100.00
10079;BME280;5078;42.544;22.966;2023-01-27T02:01:04;92974.56;;;0.02;100.00
10079;BME280;5078;42.544;22.966;2023-01-27T02:03:32;92966.94;;;0.10;100.00
10079;BME280;5078;42.544;22.966;2023-01-27T02:06:00;92970.00;;;-0.15;100.00
10079;BME280;5078;42.544;22.966;2023-01-27T02:08:29;92964.81;;;-0.15;100.00
10079;BME280;5078;42.544;22.966;2023-01-27T02:10:59;92953.41;;;-0.34;100.00
10079;BME280;5078;42.544;22.966;2023-01-27T02:13:26;92951.94;;;-0.17;100.00
10079;BME280;5078;42.544;22.966;2023-01-27T02:15:53;92948.22;;;-0.24;100.00
10079;BME280;5078;42.544;22.966;2023-01-27T02:18:20;92945.28;;;-0.40;100.00
10079;BME280;5078;42.544;22.966;2023-01-27T02:20:49;92942.13;;;-0.44;100.00
10079;BME280;5078;42.544;22.966;2023-01-27T02:23:28;92946.13;;;-0.30;100.00
10079;BME280;5078;42.544;22.966;2023-01-27T02:26:04;92942.59;;;-0.29;100.00
10079;BME280;5078;42.544;22.966;2023-01-27T02:28:32;92940.50;;;-0.35;100.00
10079;BME280;5078;42.544;22.966;2023-01-27T02:30:59;92923.59;;;-0.51;100.00
10079;BME280;5078;42.544;22.966;2023-01-27T02:33:26;92930.56;;;-0.61;100.00
10079;BME280;5078;42.544;22.966;2023-01-27T02:35:58;92929.81;;;-0.42;100.00
10079;BME280;5078;42.544;22.966;2023-01-27T02:38:28;92930.16;;;-0.56;100.00
10079;BME280;5078;42.544;22.966;2023-01-27T02:41:02;92932.91;;;-0.58;100.00
10079;BME280;5078;42.544;22.966;2023-01-27T02:43:30;92944.56;;;-0.62;100.00
10079;BME280;5078;42.544;22.966;2023-01-27T02:45:57;92945.00;;;-0.47;100.00
10079;BME280;5078;42.544;22.966;2023-01-27T02:48:24;92938.06;;;-0.27;100.00
10079;BME280;5078;42.544;22.966;2023-01-27T02:50:51;92937.72;;;-0.53;100.00
10079;BME280;5078;42.544;22.966;2023-01-27T02:53:17;92926.94;;;-0.39;100.00
10079;BME280;5078;42.544;22.966;2023-01-27T02:55:44;92927.72;;;-0.48;100.00
10079;BME280;5078;42.544;22.966;2023-01-27T02:58:12;92932.50;;;-0.53;100.00
10079;BME280;5078;42.544;22.966;2023-01-27T03:00:40;92930.06;;;-0.55;100.00
10079;BME280;5078;42.544;22.966;2023-01-27T03:03:07;92939.91;;;-0.49;100.00
10079;BME280;5078;42.544;22.966;2023-01-27T03:05:34;92940.28;;;-0.63;100.00
10079;BME280;5078;42.544;22.966;2023-01-27T03:08:01;92936.63;;;-0.51;100.00
10079;BME280;5078;42.544;22.966;2023-01-27T03:10:27;92938.44;;;-0.41;100.00
10079;BME280;5078;42.544;22.966;2023-01-27T03:12:54;92941.16;;;-0.43;100.00
10079;BME280;5078;42.544;22.966;2023-01-27T03:15:22;92939.59;;;-0.25;100.00
10079;BME280;5078;42.544;22.966;2023-01-27T03:18:08;92928.53;;;0.03;100.00
10079;BME280;5078;42.544;22.966;2023-01-27T03:20:38;92927.66;;;0.02;100.00
10079;BME280;5078;42.544;22.966;2023-01-27T03:23:05;92919.47;;;0.16;100.00
10079;BME280;5078;42.544;22.966;2023-01-27T03:25:32;92918.34;;;0.09;100.00
10079;BME280;5078;42.544;22.966;2023-01-27T03:27:58;92919.03;;;0.11;100.00
10079;BME280;5078;42.544;22.966;2023-01-27T03:30:27;92911.78;;;0.05;100.00
10079;BME280;5078;42.544;22.966;2023-01-27T03:32:54;92909.72;;;0.18;100.00
10079;BME280;5078;42.544;22.966;2023-01-27T03:35:21;92897.91;;;0.14;100.00
10079;BME280;5078;42.544;22.966;2023-01-27T03:37:48;92893.13;;;0.00;100.00
10079;BME280;5078;42.544;22.966;2023-01-27T03:40:33;92891.47;;;-0.11;100.00
10079;BME280;5078;42.544;22.966;2023-01-27T03:43:17;92888.88;;;0.09;100.00
10079;BME280;5078;42.544;22.966;2023-01-27T03:46:03;92881.47;;;0.24;100.00
10079;BME280;5078;42.544;22.966;2023-01-27T03:48:47;92872.28;;;0.00;100.00
10079;BME280;5078;42.544;22.966;2023-01-27T03:51:15;92884.06;;;0.24;100.00
10079;BME280;5078;42.544;22.966;2023-01-27T03:53:42;92867.34;;;0.16;100.00
10079;BME280;5078;42.544;22.966;2023-01-27T03:56:09;92870.50;;;0.01;100.00
10079;BME280;5078;42.544;22.966;2023-01-27T03:58:37;92875.81;;;-0.20;100.00
10079;BME280;5078;42.544;22.966;2023-01-27T04:01:10;92876.63;;;-0.49;100.00
10079;BME280;5078;42.544;22.966;2023-01-27T04:03:37;92873.88;;;-0.38;100.00
10079;BME280;5078;42.544;22.966;2023-01-27T04:06:24;92885.00;;;-0.36;100.00
10079;BME280;5078;42.544;22.966;2023-01-27T04:09:09;92889.69;;;-0.30;100.00
10079;BME280;5078;42.544;22.966;2023-01-27T04:11:36;92892.63;;;-0.63;100.00
10079;BME280;5078;42.544;22.966;2023-01-27T04:14:24;92896.75;;;-0.51;100.00
10079;BME280;5078;42.544;22.966;2023-01-27T04:16:55;92903.16;;;-0.65;100.00
10079;BME280;5078;42.544;22.966;2023-01-27T04:19:22;92897.59;;;-0.41;100.00
10079;BME280;5078;42.544;22.966;2023-01-27T04:21:50;92898.56;;;-0.42;100.00
10079;BME280;5078;42.544;22.966;2023-01-27T04:24:18;92914.03;;;-0.40;100.00
10079;BME280;5078;42.544;22.966;2023-01-27T04:26:50;92919.97;;;-0.29;100.00
10079;BME280;5078;42.544;22.966;2023-01-27T04:29:18;92907.63;;;-0.36;100.00
10079;BME280;5078;42.544;22.966;2023-01-27T04:31:46;92945.66;;;-0.05;100.00
10079;BME280;5078;42.544;22.966;2023-01-27T04:34:15;92945.75;;;-0.16;100.00
10079;BME280;5078;42.544;22.966;2023-01-27T04:36:41;92952.34;;;-0.12;100.00
10079;BME280;5078;42.544;22.966;2023-01-27T04:39:08;92964.94;;;-0.27;100.00
10079;BME280;5078;42.544;22.966;2023-01-27T04:41:35;92964.38;;;-0.20;100.00
10079;BME280;5078;42.544;22.966;2023-01-27T04:44:03;92969.75;;;-0.03;100.00
10079;BME280;5078;42.544;22.966;2023-01-27T04:46:30;92976.25;;;0.03;100.00
10079;BME280;5078;42.544;22.966;2023-01-27T04:48:57;92972.66;;;0.04;100.00
10079;BME280;5078;42.544;22.966;2023-01-27T04:51:25;92974.81;;;-0.11;100.00
10079;BME280;5078;42.544;22.966;2023-01-27T04:53:52;92978.78;;;-0.16;100.00
10079;BME280;5078;42.544;22.966;2023-01-27T04:56:24;92979.25;;;0.08;100.00
10079;BME280;5078;42.544;22.966;2023-01-27T04:58:52;92959.50;;;0.06;100.00
10079;BME280;5078;42.544;22.966;2023-01-27T05:01:19;92963.88;;;-0.05;100.00
10079;BME280;5078;42.544;22.966;2023-01-27T05:03:46;92964.03;;;0.13;100.00
10079;BME280;5078;42.544;22.966;2023-01-27T05:06:13;92971.06;;;0.23;100.00
10079;BME280;5078;42.544;22.966;2023-01-27T05:08:41;92987.09;;;0.18;100.00
10079;BME280;5078;42.544;22.966;2023-01-27T05:11:08;92987.47;;;0.04;100.00
10079;BME280;5078;42.544;22.966;2023-01-27T05:13:35;92947.59;;;0.23;100.00
10079;BME280;5078;42.544;22.966;2023-01-27T05:16:04;92921.38;;;0.24;100.00
10079;BME280;5078;42.544;22.966;2023-01-27T05:18:30;92898.75;;;0.15;100.00
10079;BME280;5078;42.544;22.966;2023-01-27T05:20:58;92902.16;;;-0.14;100.00
10079;BME280;5078;42.544;22.966;2023-01-27T05:23:25;92913.13;;;-0.10;100.00
10079;BME280;5078;42.544;22.966;2023-01-27T05:26:04;92928.66;;;0.01;100.00
10079;BME280;5078;42.544;22.966;2023-01-27T05:28:31;92948.81;;;0.09;100.00
10079;BME280;5078;42.544;22.966;2023-01-27T05:31:03;92959.13;;;0.10;100.00
10079;BME280;5078;42.544;22.966;2023-01-27T05:33:30;92953.47;;;0.05;100.00
10079;BME280;5078;42.544;22.966;2023-01-27T05:35:58;92947.72;;;0.11;100.00
10079;BME280;5078;42.544;22.966;2023-01-27T05:38:26;92955.78;;;-0.02;100.00
10079;BME280;5078;42.544;22.966;2023-01-27T05:40:57;92956.25;;;0.33;100.00
10079;BME280;5078;42.544;22.966;2023-01-27T05:43:27;92933.47;;;0.15;100.00
10079;BME280;5078;42.544;22.966;2023-01-27T05:46:05;92922.34;;;0.13;100.00
10079;BME280;5078;42.544;22.966;2023-01-27T05:48:34;92919.72;;;-0.16;100.00
10079;BME280;5078;42.544;22.966;2023-01-27T05:51:03;92927.66;;;0.02;100.00
10079;BME280;5078;42.544;22.966;2023-01-27T05:53:30;92933.72;;;0.12;100.00
10079;BME280;5078;42.544;22.966;2023-01-27T05:55:57;92937.56;;;0.08;100.00
10079;BME280;5078;42.544;22.966;2023-01-27T05:58:25;92929.88;;;0.26;100.00
10079;BME280;5078;42.544;22.966;2023-01-27T06:00:53;92936.75;;;0.37;100.00
10079;BME280;5078;42.544;22.966;2023-01-27T06:03:20;92946.06;;;0.49;100.00
10079;BME280;5078;42.544;22.966;2023-01-27T06:05:52;92955.00;;;0.47;100.00
10079;BME280;5078;42.544;22.966;2023-01-27T06:08:19;92953.47;;;0.25;100.00
10079;BME280;5078;42.544;22.966;2023-01-27T06:10:46;92965.41;;;-0.02;100.00
10079;BME280;5078;42.544;22.966;2023-01-27T06:13:13;92936.97;;;-0.25;100.00
10079;BME280;5078;42.544;22.966;2023-01-27T06:15:41;92963.63;;;0.08;100.00
10079;BME280;5078;42.544;22.966;2023-01-27T06:18:10;92944.41;;;0.09;100.00
10079;BME280;5078;42.544;22.966;2023-01-27T06:20:38;92941.88;;;-0.31;100.00
10079;BME280;5078;42.544;22.966;2023-01-27T06:23:05;92958.88;;;-0.37;100.00
10079;BME280;5078;42.544;22.966;2023-01-27T06:25:35;92959.63;;;-0.06;100.00
10079;BME280;5078;42.544;22.966;2023-01-27T06:28:03;92949.84;;;-0.23;100.00
10079;BME280;5078;42.544;22.966;2023-01-27T06:30:32;92954.97;;;-0.02;100.00
10079;BME280;5078;42.544;22.966;2023-01-27T06:33:01;92960.19;;;0.08;100.00
10079;BME280;5078;42.544;22.966;2023-01-27T06:35:32;92966.09;;;0.19;100.00
10079;BME280;5078;42.544;22.966;2023-01-27T06:38:04;92958.78;;;-0.06;100.00
10079;BME280;5078;42.544;22.966;2023-01-27T06:40:36;92953.06;;;0.00;100.00
10079;BME280;5078;42.544;22.966;2023-01-27T06:43:10;92949.91;;;0.06;100.00
10079;BME280;5078;42.544;22.966;2023-01-27T06:45:38;92961.28;;;0.15;100.00
10079;BME280;5078;42.544;22.966;2023-01-27T06:48:10;92975.28;;;0.14;100.00
10079;BME280;5078;42.544;22.966;2023-01-27T06:50:42;92980.06;;;-0.01;100.00
10079;BME280;5078;42.544;22.966;2023-01-27T06:53:19;92997.00;;;-0.26;100.00
10079;BME280;5078;42.544;22.966;2023-01-27T06:55:47;92987.03;;;-0.11;100.00
10079;BME280;5078;42.544;22.966;2023-01-27T06:58:14;92979.59;;;-0.26;100.00
10079;BME280;5078;42.544;22.966;2023-01-27T07:00:41;92981.72;;;-0.10;100.00
10079;BME280;5078;42.544;22.966;2023-01-27T07:03:10;92969.81;;;-0.43;100.00
10079;BME280;5078;42.544;22.966;2023-01-27T07:05:39;92968.16;;;-0.44;100.00
10079;BME280;5078;42.544;22.966;2023-01-27T07:08:06;92956.69;;;-0.32;100.00
10079;BME280;5078;42.544;22.966;2023-01-27T07:10:33;92959.56;;;-0.35;100.00
10079;BME280;5078;42.544;22.966;2023-01-27T07:13:04;92945.59;;;-0.34;100.00
10079;BME280;5078;42.544;22.966;2023-01-27T07:15:31;92965.44;;;-0.33;100.00
10079;BME280;5078;42.544;22.966;2023-01-27T07:17:58;92977.13;;;-0.27;100.00
10079;BME280;5078;42.544;22.966;2023-01-27T07:20:26;92951.25;;;-0.09;100.00
10079;BME280;5078;42.544;22.966;2023-01-27T07:22:56;92956.75;;;-0.12;100.00
10079;BME280;5078;42.544;22.966;2023-01-27T07:25:24;92961.09;;;-0.23;100.00
10079;BME280;5078;42.544;22.966;2023-01-27T07:27:51;92964.97;;;-0.07;100.00
10079;BME280;5078;42.544;22.966;2023-01-27T07:30:18;92958.41;;;-0.02;100.00
10079;BME280;5078;42.544;22.966;2023-01-27T07:32:45;92962.19;;;-0.25;100.00
10079;BME280;5078;42.544;22.966;2023-01-27T07:35:11;92940.94;;;-0.20;100.00
10079;BME280;5078;42.544;22.966;2023-01-27T07:37:38;92958.69;;;0.05;100.00
10079;BME280;5078;42.544;22.966;2023-01-27T07:40:08;92953.22;;;0.18;100.00
10079;BME280;5078;42.544;22.966;2023-01-27T07:42:37;92951.28;;;0.01;100.00
10079;BME280;5078;42.544;22.966;2023-01-27T07:45:05;92962.25;;;0.14;100.00
10079;BME280;5078;42.544;22.966;2023-01-27T07:47:32;92964.72;;;0.35;100.00
10079;BME280;5078;42.544;22.966;2023-01-27T07:49:59;92958.16;;;0.31;100.00
10079;BME280;5078;42.544;22.966;2023-01-27T07:52:26;92962.28;;;0.33;100.00
10079;BME280;5078;42.544;22.966;2023-01-27T07:54:53;92966.38;;;0.36;100.00
10079;BME280;5078;42.544;22.966;2023-01-27T07:57:21;92967.75;;;0.20;100.00
10079;BME280;5078;42.544;22.966;2023-01-27T07:59:47;92975.16;;;0.15;100.00
10079;BME280;5078;42.544;22.966;2023-01-27T08:02:17;92969.94;;;0.15;100.00
10079;BME280;5078;42.544;22.966;2023-01-27T08:04:47;92977.78;;;0.54;100.00
10079;BME280;5078;42.544;22.966;2023-01-27T08:07:13;92969.53;;;0.69;100.00
10079;BME280;5078;42.544;22.966;2023-01-27T08:09:40;92974.75;;;0.69;100.00
10079;BME280;5078;42.544;22.966;2023-01-27T08:12:07;92984.78;;;0.44;100.00
10079;BME280;5078;42.544;22.966;2023-01-27T08:14:35;92988.06;;;0.75;100.00
10079;BME280;5078;42.544;22.966;2023-01-27T08:17:02;92978.44;;;0.95;100.00
10079;BME280;5078;42.544;22.966;2023-01-27T08:19:28;92968.50;;;1.08;100.00
10079;BME280;5078;42.544;22.966;2023-01-27T08:21:55;92968.31;;;1.20;100.00
10079;BME280;5078;42.544;22.966;2023-01-27T08:24:22;92969.94;;;0.54;100.00
10079;BME280;5078;42.544;22.966;2023-01-27T08:26:48;92965.00;;;0.71;100.00
10079;BME280;5078;42.544;22.966;2023-01-27T08:29:15;92963.34;;;0.70;100.00
10079;BME280;5078;42.544;22.966;2023-01-27T08:31:43;92954.28;;;0.64;100.00
10079;BME280;5078;42.544;22.966;2023-01-27T08:34:10;92961.41;;;0.91;100.00
10079;BME280;5078;42.544;22.966;2023-01-27T08:36:39;92952.56;;;1.12;100.00
10079;BME280;5078;42.544;22.966;2023-01-27T08:39:07;92962.44;;;1.27;100.00
10079;BME280;5078;42.544;22.966;2023-01-27T08:41:34;92959.41;;;1.22;100.00
10079;BME280;5078;42.544;22.966;2023-01-27T08:44:00;92959.78;;;0.90;100.00
10079;BME280;5078;42.544;22.966;2023-01-27T08:46:27;92953.28;;;0.94;100.00
10079;BME280;5078;42.544;22.966;2023-01-27T08:48:55;92956.44;;;1.07;100.00
10079;BME280;5078;42.544;22.966;2023-01-27T08:51:22;92957.97;;;1.00;100.00
10079;BME280;5078;42.544;22.966;2023-01-27T08:53:49;92965.31;;;1.15;100.00
10079;BME280;5078;42.544;22.966;2023-01-27T08:56:15;92968.56;;;1.36;100.00
10079;BME280;5078;42.544;22.966;2023-01-27T08:58:42;92977.69;;;1.22;100.00
10079;BME280;5078;42.544;22.966;2023-01-27T09:01:11;92961.69;;;0.98;100.00
10079;BME280;5078;42.544;22.966;2023-01-27T09:03:38;92955.56;;;1.17;100.00
10079;BME280;5078;42.544;22.966;2023-01-27T09:06:08;92958.09;;;0.99;100.00
10079;BME280;5078;42.544;22.966;2023-01-27T09:08:36;92953.63;;;1.19;100.00
10079;BME280;5078;42.544;22.966;2023-01-27T09:11:08;92952.44;;;1.13;100.00
10079;BME280;5078;42.544;22.966;2023-01-27T09:13:35;92946.50;;;1.21;100.00
10079;BME280;5078;42.544;22.966;2023-01-27T09:16:01;92952.03;;;1.45;100.00
10079;BME280;5078;42.544;22.966;2023-01-27T09:18:28;92955.34;;;1.00;100.00
10079;BME280;5078;42.544;22.966;2023-01-27T09:20:55;92954.19;;;1.22;100.00
10079;BME280;5078;42.544;22.966;2023-01-27T09:23:23;92955.78;;;0.86;100.00
10079;BME280;5078;42.544;22.966;2023-01-27T09:25:50;92969.94;;;0.83;100.00
10079;BME280;5078;42.544;22.966;2023-01-27T09:28:16;92969.34;;;0.99;100.00
10079;BME280;5078;42.544;22.966;2023-01-27T09:30:44;92966.81;;;1.27;100.00
10079;BME280;5078;42.544;22.966;2023-01-27T09:33:11;92966.63;;;1.38;100.00
10079;BME280;5078;42.544;22.966;2023-01-27T09:35:41;92972.31;;;1.24;100.00
10079;BME280;5078;42.544;22.966;2023-01-27T09:38:11;92970.19;;;1.37;100.00
10079;BME280;5078;42.544;22.966;2023-01-27T09:40:50;92964.38;;;1.16;100.00
10079;BME280;5078;42.544;22.966;2023-01-27T09:44:01;92954.78;;;1.06;100.00
10079;BME280;5078;42.544;22.966;2023-01-27T09:46:45;92947.19;;;1.23;100.00
10079;BME280;5078;42.544;22.966;2023-01-27T09:49:25;92947.59;;;1.18;100.00
10079;BME280;5078;42.544;22.966;2023-01-27T09:52:17;92940.03;;;1.25;100.00
10079;BME280;5078;42.544;22.966;2023-01-27T09:54:57;92933.03;;;1.53;100.00
10079;BME280;5078;42.544;22.966;2023-01-27T09:57:36;92928.38;;;1.10;100.00
10079;BME280;5078;42.544;22.966;2023-01-27T10:00:15;92930.88;;;1.01;100.00
10079;BME280;5078;42.544;22.966;2023-01-27T10:03:00;92912.56;;;1.21;100.00
10079;BME280;5078;42.544;22.966;2023-01-27T10:05:56;92910.22;;;1.27;100.00
10079;BME280;5078;42.544;22.966;2023-01-27T10:11:35;92909.09;;;1.85;100.00
10079;BME280;5078;42.544;22.966;2023-01-27T10:14:18;92912.66;;;1.57;100.00
10079;BME280;5078;42.544;22.966;2023-01-27T10:17:09;92907.81;;;1.62;100.00
10079;BME280;5078;42.544;22.966;2023-01-27T10:19:50;92905.16;;;1.44;100.00
10079;BME280;5078;42.544;22.966;2023-01-27T10:22:32;92900.88;;;1.53;100.00
10079;BME280;5078;42.544;22.966;2023-01-27T10:25:14;92902.31;;;1.37;100.00
10079;BME280;5078;42.544;22.966;2023-01-27T10:27:46;92906.97;;;1.43;100.00
10079;BME280;5078;42.544;22.966;2023-01-27T10:30:20;92907.88;;;1.52;100.00
10079;BME280;5078;42.544;22.966;2023-01-27T10:32:58;92913.31;;;1.41;100.00
10079;BME280;5078;42.544;22.966;2023-01-27T10:35:30;92908.50;;;1.36;100.00
10079;BME280;5078;42.544;22.966;2023-01-27T10:38:07;92892.06;;;1.26;100.00
10079;BME280;5078;42.544;22.966;2023-01-27T10:40:43;92906.28;;;1.04;100.00
10079;BME280;5078;42.544;22.966;2023-01-27T10:43:16;92898.63;;;1.02;100.00
10079;BME280;5078;42.544;22.966;2023-01-27T10:45:57;92899.25;;;1.14;100.00
10079;BME280;5078;42.544;22.966;2023-01-27T10:48:34;92888.84;;;1.04;100.00
10079;BME280;5078;42.544;22.966;2023-01-27T10:51:07;92894.53;;;1.27;100.00
10079;BME280;5078;42.544;22.966;2023-01-27T10:53:42;92890.56;;;1.23;100.00
10079;BME280;5078;42.544;22.966;2023-01-27T10:56:16;92874.59;;;0.89;100.00
10079;BME280;5078;42.544;22.966;2023-01-27T10:58:53;92888.91;;;0.85;100.00
10079;BME280;5078;42.544;22.966;2023-01-27T11:01:29;92897.09;;;0.53;100.00
10079;BME280;5078;42.544;22.966;2023-01-27T11:04:00;92910.25;;;0.61;100.00
10079;BME280;5078;42.544;22.966;2023-01-27T11:06:32;92892.94;;;0.60;100.00
10079;BME280;5078;42.544;22.966;2023-01-27T11:09:06;92904.31;;;0.69;100.00
10079;BME280;5078;42.544;22.966;2023-01-27T11:11:36;92893.75;;;0.70;100.00
10079;BME280;5078;42.544;22.966;2023-01-27T11:14:23;92899.81;;;0.51;100.00
10079;BME280;5078;42.544;22.966;2023-01-27T11:16:57;92896.81;;;0.46;100.00
10079;BME280;5078;42.544;22.966;2023-01-27T11:19:39;92890.31;;;0.70;100.00
10079;BME280;5078;42.544;22.966;2023-01-27T11:22:16;92892.94;;;0.60;100.00
10079;BME280;5078;42.544;22.966;2023-01-27T11:24:48;92885.88;;;0.80;100.00
10079;BME280;5078;42.544;22.966;2023-01-27T11:27:24;92881.19;;;0.93;100.00
10079;BME280;5078;42.544;22.966;2023-01-27T11:30:00;92880.63;;;0.90;100.00
10079;BME280;5078;42.544;22.966;2023-01-27T11:32:38;92868.94;;;1.03;100.00
10079;BME280;5078;42.544;22.966;2023-01-27T11:35:09;92867.47;;;0.91;100.00
10079;BME280;5078;42.544;22.966;2023-01-27T11:37:38;92852.81;;;0.80;100.00
10079;BME280;5078;42.544;22.966;2023-01-27T11:40:14;92860.63;;;0.90;100.00
10079;BME280;5078;42.544;22.966;2023-01-27T11:42:41;92855.97;;;1.12;100.00
10079;BME280;5078;42.544;22.966;2023-01-27T11:45:12;92842.63;;;1.15;100.00
10079;BME280;5078;42.544;22.966;2023-01-27T11:47:43;92858.03;;;1.18;100.00
10079;BME280;5078;42.544;22.966;2023-01-27T11:50:14;92857.72;;;0.93;100.00
10079;BME280;5078;42.544;22.966;2023-01-27T11:52:42;92855.91;;;0.94;100.00
10079;BME280;5078;42.544;22.966;2023-01-27T11:55:15;92862.22;;;1.01;100.00
10079;BME280;5078;42.544;22.966;2023-01-27T11:57:46;92857.47;;;1.14;100.00
10079;BME280;5078;42.544;22.966;2023-01-27T12:00:20;92851.16;;;1.17;100.00
10079;BME280;5078;42.544;22.966;2023-01-27T12:02:54;92863.00;;;1.11;100.00
10079;BME280;5078;42.544;22.966;2023-01-27T12:05:28;92865.75;;;1.10;100.00
10079;BME280;5078;42.544;22.966;2023-01-27T12:07:56;92869.47;;;1.07;100.00
10079;BME280;5078;42.544;22.966;2023-01-27T12:10:27;92877.59;;;1.04;100.00
10079;BME280;5078;42.544;22.966;2023-01-27T12:12:56;92865.22;;;1.06;100.00
10079;BME280;5078;42.544;22.966;2023-01-27T12:15:24;92871.84;;;1.00;100.00
10079;BME280;5078;42.544;22.966;2023-01-27T12:17:55;92863.97;;;1.10;100.00
10079;BME280;5078;42.544;22.966;2023-01-27T12:20:29;92870.78;;;0.83;100.00
10079;BME280;5078;42.544;22.966;2023-01-27T12:23:00;92865.84;;;0.90;100.00
10079;BME280;5078;42.544;22.966;2023-01-27T12:25:30;92879.44;;;0.84;100.00
10079;BME280;5078;42.544;22.966;2023-01-27T12:27:59;92867.00;;;0.58;100.00
10079;BME280;5078;42.544;22.966;2023-01-27T12:30:29;92878.81;;;0.62;100.00
10079;BME280;5078;42.544;22.966;2023-01-27T12:32:59;92877.41;;;0.78;100.00
10079;BME280;5078;42.544;22.966;2023-01-27T12:35:28;92891.09;;;0.80;100.00
10079;BME280;5078;42.544;22.966;2023-01-27T12:37:59;92882.09;;;0.64;100.00
10079;BME280;5078;42.544;22.966;2023-01-27T12:40:27;92881.44;;;0.62;100.00
10079;BME280;5078;42.544;22.966;2023-01-27T12:43:12;92879.22;;;0.68;100.00
10079;BME280;5078;42.544;22.966;2023-01-27T12:45:40;92876.03;;;0.74;100.00
10079;BME280;5078;42.544;22.966;2023-01-27T12:48:19;92876.94;;;0.45;100.00
10079;BME280;5078;42.544;22.966;2023-01-27T12:50:55;92871.44;;;0.29;100.00
10079;BME280;5078;42.544;22.966;2023-01-27T12:53:23;92867.53;;;0.62;100.00
10079;BME280;5078;42.544;22.966;2023-01-27T12:55:56;92867.69;;;0.60;100.00
10079;BME280;5078;42.544;22.966;2023-01-27T12:58:29;92865.63;;;0.64;100.00
10079;BME280;5078;42.544;22.966;2023-01-27T13:00:58;92872.63;;;0.63;100.00
10079;BME280;5078;42.544;22.966;2023-01-27T13:03:27;92868.38;;;0.62;100.00
10079;BME280;5078;42.544;22.966;2023-01-27T13:05:56;92864.28;;;0.50;100.00
10079;BME280;5078;42.544;22.966;2023-01-27T13:08:26;92866.75;;;0.42;100.00
10079;BME280;5078;42.544;22.966;2023-01-27T13:10:56;92866.63;;;0.53;100.00
10079;BME280;5078;42.544;22.966;2023-01-27T13:13:25;92866.72;;;0.61;100.00
10079;BME280;5078;42.544;22.966;2023-01-27T13:15:55;92864.03;;;0.34;100.00